Tar Heel, NC (28392)

1:55 AM EDT on April 29, 2017 (GMT -0400)
| | Change Station
Active Advisory: Flood Warning

Elev -9999 ft 0.00 °N, 0.00 °E | Updated 7 seconds ago

Overcast
Overcast
°F
Feels Like °F
N
Wind Variable Wind from North
Gusts mph

Today
High -- | Low -- °F
--% Chance of Precip.
Yesterday
High -- | Low -- °F
Precip. -- in
Pressure 30.13 in
Visibility 8.0 miles
Clouds Overcast 1300 ft
Dew Point Not available.
Humidity Not available.
Rainfall --
Snow Depth Not available.
6:26 AM 7:58 PM
Waxing Crescent, 11% visible
METAR KLBT 290454Z AUTO 19005KT 8SM OVC013 24/23 A3014 RMK AO2 SLP203 T02390228 403170217
Pressure 30.13 in
Visibility 8.0 miles
Clouds Overcast 1300 ft
Dew Point Not available.
Humidity Not available.
Rainfall --
Snow Depth Not available.
6:26 AM 7:58 PM
Waxing Crescent, 11% visible
METAR KLBT 290454Z AUTO 19005KT 8SM OVC013 24/23 A3014 RMK AO2 SLP203 T02390228 403170217

Get Your Daily Forecast Email!

Thanks for signing up!

Be on the lookout for a verification email in your inbox.

You'll start receiving severe weather alerts in your inbox..

×

10-Day Weather Forecast

Almanac

Astronomy

Apr. 29, 2017 Rise Set
Actual Time
Civil Twilight
Nautical Twilight
Astronomical Twilight
Moon
Length of Visible Light
Length of Day
Tomorrow will be .
, % of the Moon is Illuminated

Today's Extremes

State Highs State Lows

Community

WunderPhotos

WunderBlog® & News

Nearby

Air Quality

  Air Quality AQ Index Pollutant
Not available.

Snow Depth

Station Depth Elevation

Earthquake Activity

City Distance Mag. Time & Date
Minimum magnitude displayed is 2.5.

Coastal Water Temperatures

Place Temperature

Stations

Nearby Weather Stations

Station Location Temp. Windchill Dew Point Humidity Wind Precip. Elev Updated Type
                   

Watches & Warnings

Flood Warning
Issued: 9:29 PM EDT Apr. 28, 2017 – National Weather Service

... Flood Warning now in effect until Sunday morning...
the Flood Warning continues for
the Cape Fear at Elizabethtown.
* Until Sunday morning.
* Flood stage is 25.0 feet.
* Forecast... the river is forecast to fall below flood stage Saturday night
or Sunday morning.
* Impact... at 25.0 feet... flood waters will reach the top of the navigational
lock.


Lat... Lon 3472 7865 3466 7852 3456 7838 3450 7847
          3459 7859 3465 7872




929 PM EDT Fri Apr 28 2017

The Flood Warning continues for
the Cape Fear at William o Huske lock and dam 3.
* Until further notice.
* At 9:00 PM Friday the stage was 47.11 feet.
* Flood stage is 42.0 feet.
* Minor flooding is occurring and minor flooding is forecast.
* Forecast... the river will continue to fall to a stage of 44.8 feet by Sunday
morning.


Lat... Lon 3485 7886 3485 7875 3478 7874 3472 7865
          3465 7872 3472 7882